Tiempo atmosférico en la estación meteorológica de Santiago De Compostela, A Coruña (240 m.)



Fecha
DESCASC
Temp. máxima en grados centígrados (hora)
DESCASC
Temp. mínima en grados centígrados (hora)
DESCASC
Temp. media en grados centígrados
DESCASC
Racha de viento máxima en m/sg (hora)
DESCASC
Velocidad máxima media en intervalos de 10 minutos(hora)
DESCASC
Precipitaciones diarias en mm
DESCASC
Precipitaciones de 00:00 a 06:00 en mm
DESCASC
Precipitaciones de 06:00 a 12:00 en mm
DESCASC
Precipitaciones de 12:00 a 18:00 en mm
DESCASC
Precipitaciones de 18:00 a 24:00 en mm
DESCASC
28-02-2021 18.1 (16:00) 5.3 (08:10) 11.7 6.94 (05:00) 3.06 (21:00) 0 0 0 0 0
27-02-2021 18.6 (15:30) 7.4 (08:20) 13 7.5 (17:40) 2.78 (19:50) 0 0 0 0 0
26-02-2021 18.7 (15:20) 8.4 (08:30) 13.6 6.11 (13:50) 2.22 (18:00) 0 0 0 0 0
25-02-2021 11.5 (14:50) 8.4 (00:00) 9.9 7.22 (21:40) 3.06 (19:50) 3.9 2.5 1.1 0.1 0.2
24-02-2021 17.7 (15:50) 9.1 (00:00) 13.4 13.33 (12:50) 3.89 (18:00) 5.5 0 0 0 5.5
23-02-2021 13.7 (14:40) 10.7 (00:00) 12.2 7.5 (12:40) 2.5 (14:40) 2.8 0 0.7 1.7 0.4
22-02-2021 14.8 (15:20) 1.2 (00:00) 8 6.94 (18:20) 2.5 (15:40) 0 0 0 0 0
21-02-2021 12.4 (14:40) 4.6 (00:00) 8.5 6.11 (14:40) 1.94 (08:30) 11.1 6.2 2.3 2.6 0
20-02-2021 14.6 (05:10) 8.8 (00:00) 11.7 15.28 (09:30) 5 (13:00) 36.2 2.8 21.6 10.1 1.7
19-02-2021 14 (11:10) 9.5 (00:00) 11.8 13.33 (14:30) 3.61 (16:10) 3.6 0 1.1 1.2 1.3
18-02-2021 13.8 (15:40) 8.8 (00:00) 11.3 15.28 (02:50) 4.72 (03:10) 12.5 8 3.8 0.7 0
17-02-2021 14.3 (13:40) 7.6 (00:00) 11 13.89 (21:20) 4.17 (13:50) 11.3 0 0 5.1 6.2
16-02-2021 14.7 (15:30) 10.2 (00:00) 12.4 12.22 (02:50) 3.33 (06:40) 14.4 1.8 12.6 0 0
15-02-2021 21 (15:10) 11 (00:00) 16 9.72 (23:59) 3.33 (15:40) 0 0 0 0 0
14-02-2021 16.6 (16:40) 10.9 (00:00) 13.8 9.17 (14:30) 3.61 (14:20) 0 0 0 0 0
13-02-2021 13 (14:50) 10.3 (00:00) 11.7 7.78 (12:50) 2.22 (12:50) 6.3 0.1 3.4 1.4 1.4
12-02-2021 14.9 (15:10) 10 (00:00) 12.4 8.61 (16:20) 2.78 (16:00) 5.1 4.9 0.2 0 0
11-02-2021 14 (15:30) 9.2 (00:00) 11.6 10.28 (04:10) 3.33 (07:50) 59.2 2.9 16.6 28.9 10.8
10-02-2021 13.6 (14:00) 4.6 (00:00) 9.1 6.94 (15:00) 2.78 (15:10) 4.8 3.1 0 0 1.7
09-02-2021 11.4 (14:50) 7 (00:00) 9.2 12.22 (07:00) 4.72 (05:30) 39.5 14.1 13.6 9 2.8
08-02-2021 11.5 (14:20) 7.8 (00:00) 9.7 9.72 (22:40) 2.78 (22:50) 13.4 4.4 4.1 2.2 2.7
07-02-2021 11 (21:20) 1.9 (00:00) 6.4 8.33 (21:00) 2.5 (21:20) 24.3 0 1.1 0.9 22.3
06-02-2021 11.1 (13:10) 4.1 (00:00) 7.6 10.56 (07:50) 4.17 (12:50) 0.6 0.6 0 0 0
05-02-2021 11.6 (14:00) 6 (00:00) 8.8 9.44 (15:20) 4.44 (20:10) 0.3 0.1 0 0 0.2
04-02-2021 13.7 (14:40) 7.9 (00:00) 10.8 5.28 (00:30) 1.67 (20:20) 16 3 0.1 4.2 8.7
03-02-2021 13.1 (11:50) 9.3 (00:00) 11.2 11.94 (00:10) 4.72 (04:20) 12.2 8 0.7 2.1 1.4
02-02-2021 13.5 (14:00) 11.8 (00:00) 12.7 12.5 (05:10) 4.44 (05:10) 52.6 4.3 13.9 19.4 15
01-02-2021 12.6 (00:20) 11.7 (00:00) 12.2 8.89 (21:50) 2.78 (04:40) 5 0.1 0.5 1.9 2.5
31-01-2021 13.8 (13:30) 10.1 (00:00) 12 9.72 (19:20) 3.33 (15:50) 10.8 6.1 4.3 0 0.4
30-01-2021 12.5 (01:20) 8.4 (00:00) 10.4 11.39 (08:20) 3.89 (01:50) 5.5 1.4 3.2 0.6 0.3

Gráficas

Temp. máximas Temp. mínimas Temp. medias Precipitaciones Rachas de viento máximas Velocidades máximas media en intervalos de 10 minutos

Datos horarios

Fecha y hora oficial Temperatura (ºC) Velocidad del viento (km/h) Dirección del viento Racha (km/h) Dirección de racha Precipitación (mm) Presión (hPa) Tendencia (hPa) Humedad (%)
2021-02-28 23:00:00 7.9 6 Nordeste 17 Nordeste 0 -- -- 76
2021-02-28 22:00:00 8.6 10 Nordeste 22 Nordeste 0 -- -- 72
2021-02-28 21:00:00 10.1 11 Nordeste 22 Nordeste 0 -- -- 63
2021-02-28 20:00:00 12.3 6 Nordeste 14 Norte 0 -- -- 53
2021-02-28 19:00:00 14.2 4 Nordeste 19 Nordeste 0 -- -- 43
2021-02-28 18:00:00 15.7 6 Nordeste 18 Nordeste 0 -- -- 42
2021-02-28 17:00:00 17 5 Este 19 Nordeste 0 -- -- 39
2021-02-28 16:00:00 18 4 Nordeste 17 Nordeste 0 -- -- 41
2021-02-28 15:00:00 17.6 4 Este 16 Sudeste 0 -- -- 41
2021-02-28 14:00:00 16.3 4 Nordeste 18 Este 0 -- -- 44
2021-02-28 13:00:00 14.8 5 Nordeste 17 Este 0 -- -- 46
2021-02-28 12:00:00 13.1 6 Nordeste 16 Norte 0 -- -- 54
2021-02-28 11:00:00 11.2 5 Nordeste 18 Nordeste 0 -- -- 62
2021-02-28 10:00:00 7.8 5 Nordeste 21 Norte 0 -- -- 79
2021-02-28 09:00:00 5.8 8 Nordeste 22 Norte 0 -- -- 87
2021-02-28 08:00:00 5.4 7 Nordeste 19 Nordeste 0 -- -- 87
2021-02-28 07:00:00 5.8 6 Nordeste 21 Norte 0 -- -- 86
2021-02-28 06:00:00 6.2 8 Nordeste 18 Nordeste 0 -- -- 85
2021-02-28 05:00:00 6.4 8 Nordeste 25 Nordeste 0 -- -- 86
2021-02-28 04:00:00 6.6 5 Nordeste 15 Nordeste 0 -- -- 87
2021-02-28 03:00:00 7 5 Nordeste 16 Nordeste 0 -- -- 87
2021-02-28 02:00:00 7.2 7 Nordeste 17 Norte 0 -- -- 87
2021-02-28 01:00:00 7.8 8 Nordeste 19 Norte 0 -- -- 85
2021-02-28 00:00:00 8.3 8 Nordeste 16 Nordeste 0 -- -- 84
2021-02-27 23:00:00 8.9 4 Nordeste 13 Nordeste 0 -- -- 81
2021-02-27 22:00:00 9.9 5 Nordeste 16 Norte 0 -- -- 78
2021-02-27 21:00:00 10.8 6 Nordeste 23 Nordeste 0 -- -- 73
2021-02-27 20:00:00 12.5 8 Nordeste 22 Nordeste 0 -- -- 67
2021-02-27 19:00:00 14.6 8 Nordeste 21 Nordeste 0 -- -- 59
2021-02-27 18:00:00 16.2 8 Nordeste 27 Norte 0 -- -- 54
2021-02-27 17:00:00 17.4 6 Nordeste 23 Este 0 -- -- 53
2021-02-27 16:00:00 18.1 7 Nordeste 23 Nordeste 0 -- -- 52
2021-02-27 15:00:00 18.3 5 Nordeste -- -- -- -- -- 50
2021-02-27 14:00:00 17.5 5 Este 17 Este 0 -- -- 53
2021-02-27 13:00:00 16.1 5 Este 24 Este 0 -- -- 60
2021-02-27 12:00:00 14.1 7 Este 19 Este 0 -- -- 67
2021-02-27 11:00:00 12.2 4 Nordeste 17 Este 0 -- -- 77
2021-02-27 10:00:00 9.3 6 Nordeste 13 Norte 0 -- -- 91
2021-02-27 09:00:00 7.8 5 Nordeste 15 Nordeste 0 -- -- 94
2021-02-27 08:00:00 7.6 3 Nordeste 12 Nordeste 0 -- -- 93
2021-02-27 07:00:00 7.9 5 Nordeste 15 Norte 0 -- -- 92
2021-02-27 06:00:00 8.1 7 Nordeste 15 Nordeste 0 -- -- 91
2021-02-27 05:00:00 8.6 5 Nordeste 19 Norte 0 -- -- 91
2021-02-27 04:00:00 8.8 4 Nordeste 17 Nordeste 0 -- -- 90
2021-02-27 03:00:00 9.1 4 Norte 12 Norte 0 -- -- 89
2021-02-27 02:00:00 9.3 8 Norte 18 Norte 0 -- -- 88
2021-02-27 01:00:00 9.4 7 Nordeste 19 Nordeste 0 -- -- 87
2021-02-27 00:00:00 9.8 6 Nordeste 15 Nordeste 0 -- -- 85
2021-02-26 23:00:00 10.3 4 Nordeste 14 Norte 0 -- -- 83
2021-02-26 22:00:00 11 3 Nordeste 12 Norte 0 -- -- 78
2021-02-26 21:00:00 12.2 4 Nordeste 12 Este 0 -- -- 72
2021-02-26 20:00:00 13.6 4 Nordeste 18 Este 0 -- -- 66
2021-02-26 19:00:00 15.4 5 Nordeste 19 Norte 0 -- -- 61
2021-02-26 18:00:00 16.6 8 Nordeste 21 Nordeste 0 -- -- 58
2021-02-26 17:00:00 17.6 6 Nordeste 17 Norte 0 -- -- 57
2021-02-26 16:00:00 18.2 8 Nordeste 18 Norte 0 -- -- 55
2021-02-26 15:00:00 18 5 Este 15 Nordeste 0 -- -- 53
2021-02-26 14:00:00 17.2 4 Nordeste 22 Este 0 -- -- 57
2021-02-26 13:00:00 16.1 5 Nordeste 17 Este 0 -- -- 61
2021-02-26 12:00:00 14.2 5 Nordeste 18 Nordeste 0 -- -- 68
2021-02-26 11:00:00 13.2 5 Este 15 Este 0 -- -- 76
2021-02-26 10:00:00 10.4 3 Nordeste 13 Nordeste 0 -- -- 88
2021-02-26 09:00:00 8.6 4 Nordeste 9 Norte 0 -- -- 91
2021-02-26 08:00:00 8.5 4 Nordeste 13 Norte 0 -- -- 91
2021-02-26 07:00:00 8.7 0 Calma 9 Norte 0 -- -- 91
2021-02-26 06:00:00 8.8 2 Este 21 Norte 0 -- -- 91
2021-02-26 05:00:00 8.9 4 Nordeste 10 Norte 0 -- -- 91
2021-02-26 04:00:00 8.9 3 Nordeste 8 Nordeste 0 -- -- 90
2021-02-26 03:00:00 9.2 2 Nordeste 16 Norte 0 -- -- 90
2021-02-26 02:00:00 9.3 3 Nordeste 15 Norte 0 -- -- 90
2021-02-26 01:00:00 9.2 4 Nordeste 14 Norte 0 -- -- 90
2021-02-26 00:00:00 9.5 5 Nordeste 19 Nordeste 0 -- -- 90
2021-02-25 23:00:00 9.7 6 Nordeste 23 Nordeste 0.2 -- -- 90
2021-02-25 22:00:00 9.9 6 Norte 26 Norte 0 -- -- 87
2021-02-25 21:00:00 10.2 10 Nordeste 23 Nordeste 0 -- -- 86
2021-02-25 20:00:00 10.3 9 Nordeste 24 Norte 0 -- -- 86
2021-02-25 19:00:00 10.4 8 Nordeste 20 Norte 0 -- -- 86
2021-02-25 18:00:00 10.7 8 Nordeste 21 Nordeste 0 -- -- 87
2021-02-25 17:00:00 10.5 5 Norte 19 Norte 0.1 -- -- 87
2021-02-25 16:00:00 10.9 7 Norte 19 Norte 0 -- -- 79
2021-02-25 15:00:00 11.5 5 Norte 22 Norte 0 -- -- 76
2021-02-25 14:00:00 11.2 6 Nordeste 17 Nordeste 0 -- -- 77
2021-02-25 13:00:00 10.8 4 Norte 16 Norte 0 -- -- 85
2021-02-25 12:00:00 9.8 3 Nordeste 19 Norte 0.2 -- -- 93
2021-02-25 11:00:00 9 4 Nordeste 15 Nordeste 0.1 -- -- 96
2021-02-25 10:00:00 8.8 5 Norte 14 Nordeste 0.5 -- -- 96
2021-02-25 09:00:00 8.6 6 Norte 14 Norte 0.2 -- -- 96
2021-02-25 08:00:00 8.6 0 Calma 10 Norte 0.1 -- -- 96
2021-02-25 07:00:00 8.4 4 Norte 18 Nordeste 0 -- -- 96
2021-02-25 06:00:00 8.5 4 Norte 12 Nordeste 0.1 -- -- 96
2021-02-25 05:00:00 8.6 2 Nordeste 5 Nordeste 0 -- -- 96
2021-02-25 04:00:00 8.7 0 Calma 6 Nordeste 0.1 -- -- 95
2021-02-25 03:00:00 8.9 3 Este 13 Sudeste 0.8 -- -- 95
2021-02-25 02:00:00 9 2 Sudeste 9 Este 0.6 -- -- 95
2021-02-25 01:00:00 9 0 Calma 6 Norte 0.9 -- -- 94
2021-02-25 00:00:00 9.2 2 Norte 11 Nordeste 1 -- -- 93
2021-02-24 23:00:00 9.4 6 Nordeste 13 Norte 1.1 -- -- 91
2021-02-24 22:00:00 10.6 3 Oeste 22 Sudoeste 2.6 -- -- 90
2021-02-24 21:00:00 12.5 4 Sudoeste 25 Sudoeste 0.8 -- -- 83
2021-02-24 20:00:00 13.1 11 Sudoeste 32 Sudoeste 0 -- -- 72
2021-02-24 19:00:00 13.5 8 Sudoeste 34 Sudoeste 0 -- -- 67
2021-02-24 18:00:00 13.9 14 Sudoeste 44 Sudoeste 0 -- -- 60
2021-02-24 17:00:00 15.3 12 Sudoeste 33 Sur 0 -- -- 50
2021-02-24 16:00:00 17.2 10 Sur 34 Sur 0 -- -- 41
2021-02-24 15:00:00 17.2 9 Sur 41 Sur 0 -- -- 41
2021-02-24 14:00:00 17.3 10 Sur 42 Sur 0 -- -- 39
2021-02-24 13:00:00 17.5 10 Sur 48 Sur 0 -- -- 39
2021-02-24 12:00:00 16.2 10 Sur 40 Sudoeste 0 -- -- 42
2021-02-24 11:00:00 15.3 9 Sur 42 Sudoeste 0 -- -- 43
2021-02-24 10:00:00 13.8 8 Sur 30 Sudoeste 0 -- -- 46
2021-02-24 09:00:00 13 9 Sur 36 Sur 0 -- -- 47
2021-02-24 08:00:00 12.7 8 Sur 24 Sur 0 -- -- 46
2021-02-24 07:00:00 13.1 7 Sur 26 Sur 0 -- -- 46
2021-02-24 06:00:00 13.3 6 Sur 29 Sur 0 -- -- 46
2021-02-24 05:00:00 13.8 9 Sur 32 Sudoeste 0 -- -- 46
2021-02-24 04:00:00 13.8 8 Sur 27 Sur 0 -- -- 46
2021-02-24 03:00:00 13.7 5 Sur 25 Sudoeste 0 -- -- 53
2021-02-24 02:00:00 13.3 4 Sur 17 Sudeste 0 -- -- 64
2021-02-24 01:00:00 12.9 3 Sur 15 Oeste 0 -- -- 74
2021-02-24 00:00:00 12.5 0 Calma 14 Sur 0 -- -- 82
2021-02-23 23:00:00 12.4 3 Sur 8 Sudoeste 0 -- -- 85
2021-02-23 22:00:00 12.4 2 Sudoeste 11 Sudoeste 0 -- -- 86
2021-02-23 21:00:00 12.2 5 Sur 14 Sur 0 -- -- 91
2021-02-23 20:00:00 12.2 4 Sudoeste 13 Sudoeste 0.2 -- -- 96
2021-02-23 19:00:00 12.5 3 Sudoeste 15 Sur 0.2 -- -- 96
2021-02-23 18:00:00 12.4 4 Sudoeste 12 Sudoeste 0.3 -- -- 96
2021-02-23 17:00:00 12.1 4 Sudoeste 15 Sudoeste 1 -- -- 95
2021-02-23 16:00:00 12.3 7 Sudoeste 18 Sudoeste 0.3 -- -- 92
2021-02-23 15:00:00 12.8 8 Sudoeste 26 Sudoeste 0 -- -- 84
2021-02-23 14:00:00 12.6 4 Sudoeste 20 Oeste 0 -- -- 86
2021-02-23 13:00:00 12.4 5 Sudoeste 27 Sudoeste 0.1 -- -- 87
2021-02-23 12:00:00 11.9 6 Sudoeste 24 Sudoeste 0.2 -- -- 90
2021-02-23 11:00:00 11.2 4 Sudoeste 23 Sudoeste 0.2 -- -- 91
2021-02-23 10:00:00 10.9 6 Sudoeste 23 Sudoeste 0.3 -- -- 90
2021-02-23 09:00:00 10.9 5 Sudoeste 20 Sudoeste 0 -- -- 87
2021-02-23 08:00:00 11.5 7 Sudoeste 19 Sudoeste 0 -- -- 75
2021-02-23 07:00:00 12.1 6 Sur 20 Sur 0 -- -- 65
2021-02-23 06:00:00 12 5 Sur 19 Sur 0 -- -- 62
2021-02-23 05:00:00 12.1 4 Sudoeste 18 Sudoeste 0 -- -- 61
2021-02-23 04:00:00 12.3 6 Sur 25 Sur 0 -- -- 60
2021-02-23 03:00:00 12.2 7 Sur 23 Sur 0 -- -- 60
2021-02-23 02:00:00 11.9 7 Sur 24 Sur 0 -- -- 62
2021-02-23 01:00:00 10.8 5 Sur 22 Sur 0 -- -- 67
2021-02-23 00:00:00 10.8 5 Sur 23 Sur 0 -- -- 69
2021-02-22 23:00:00 10.2 4 Sur 14 Sur 0 -- -- 70
2021-02-22 22:00:00 10.3 5 Sur 14 Sur 0 -- -- 70
2021-02-22 21:00:00 10.9 3 Sur 10 Sur 0 -- -- 68
2021-02-22 20:00:00 11.3 3 Sudoeste 10 Sur 0 -- -- 67
2021-02-22 19:00:00 12.2 4 Sudoeste 25 Sudoeste 0 -- -- 63
2021-02-22 18:00:00 13.5 8 Sudoeste 23 Sudoeste 0 -- -- 57
2021-02-22 17:00:00 13.8 9 Sudoeste 23 Sudoeste 0 -- -- 54
2021-02-22 16:00:00 13.4 8 Sudoeste 24 Sudoeste 0 -- -- 52
2021-02-22 15:00:00 13.7 7 Sudoeste 22 Sudoeste 0 -- -- 51
2021-02-22 14:00:00 13.4 8 Sudoeste 24 Sudoeste 0 -- -- 52
2021-02-22 13:00:00 12.4 8 Sudoeste 18 Sudoeste 0 -- -- 60
2021-02-22 12:00:00 10.6 6 Sudeste 13 Sudeste 0 -- -- 64
2021-02-22 11:00:00 8.6 4 Sudeste 10 Sur 0 -- -- 83
2021-02-22 10:00:00 3.7 2 Nordeste 9 Norte 0 -- -- 98
2021-02-22 09:00:00 1.7 3 Nordeste 9 Norte 0 -- -- 98
2021-02-22 08:00:00 1.3 2 Nordeste 8 Nordeste 0 -- -- 97
2021-02-22 07:00:00 1.3 0 Calma 0 Calma 0 -- -- 98
2021-02-22 06:00:00 1.9 0 Calma -- -- 0 -- -- 98
2021-02-22 05:00:00 2.9 0 Calma -- -- 0 -- -- 98
2021-02-22 04:00:00 3.1 0 Calma -- -- 0 -- -- 97
2021-02-22 03:00:00 3.6 0 Calma 5 Nordeste 0 -- -- 96
2021-02-22 02:00:00 3.9 3 Nordeste 6 Nordeste 0 -- -- 96
2021-02-22 01:00:00 4 0 Calma 6 Nordeste 0 -- -- 95
2021-02-22 00:00:00 4.6 0 Calma 6 Nordeste 0 -- -- 94
2021-02-21 23:00:00 5 0 Calma 5 Nordeste 0 -- -- 92
2021-02-21 22:00:00 5.9 0 Calma 4 Nordeste 0 -- -- 90
2021-02-21 21:00:00 7.1 0 Calma 3 Norte 0 -- -- 86
2021-02-21 20:00:00 8.6 0 Calma 7 Oeste 0 -- -- 83
2021-02-21 19:00:00 10.1 0 Calma 7 Sudoeste 0 -- -- 76
2021-02-21 18:00:00 10.4 0 Calma -- -- 0 -- -- 76
2021-02-21 17:00:00 9.6 0 Calma 8 Sudoeste 0 -- -- 75
2021-02-21 16:00:00 9.7 0 Calma 12 Sudoeste 0.8 -- -- 76
2021-02-21 15:00:00 9.5 0 Calma 22 Sudoeste 1.4 -- -- 74
2021-02-21 14:00:00 11.5 0 Calma 8 Oeste 0.3 -- -- 72
2021-02-21 13:00:00 9.6 4 Oeste 12 Sudoeste 0.1 -- -- 82
2021-02-21 12:00:00 8.8 0 Calma 5 Sur 0 -- -- 90
2021-02-21 11:00:00 7.6 0 Calma -- -- 0 -- -- 96
2021-02-21 10:00:00 7 0 Calma -- -- 0 -- -- 96
2021-02-21 09:00:00 6.7 0 Calma 17 Sudeste 0 -- -- 96
2021-02-21 08:00:00 7.1 3 Sur 9 Sudeste 1.2 -- -- 96
2021-02-21 07:00:00 7.2 0 Calma 12 Sudeste 1.1 -- -- 94
2021-02-21 06:00:00 7.1 5 Sudeste 13 Sudeste 0.5 -- -- 94
2021-02-21 05:00:00 7.4 2 Sudeste 12 Este 1.6 -- -- 94
2021-02-21 04:00:00 7.7 4 Este 11 Sudeste 1.1 -- -- 94
2021-02-21 03:00:00 8.1 4 Este 14 Este 0.4 -- -- 93
2021-02-21 02:00:00 8.2 4 Este 13 Este 1.4 -- -- 93
2021-02-21 01:00:00 8.6 2 Sudeste 11 Sudeste 1.2 -- -- 93
2021-02-21 00:00:00 8.9 0 Calma 6 Este 0.3 -- -- 94
2021-02-20 23:00:00 9.2 0 Calma 7 Sudoeste 0.6 -- -- 93
2021-02-20 22:00:00 9.5 0 Calma 14 Sudeste 0.1 -- -- 92
2021-02-20 21:00:00 9.8 3 Sur 13 Sur 0 -- -- 91
2021-02-20 20:00:00 9.9 3 Sur 18 Sur 0.2 -- -- 88
2021-02-20 19:00:00 10.2 6 Sur 24 Sur 0.5 -- -- 90
2021-02-20 18:00:00 10.8 7 Sur 19 Sur 0 -- -- 94
2021-02-20 17:00:00 11 6 Sur 20 Sudoeste 0.1 -- -- 94
2021-02-20 16:00:00 11 6 Sudoeste 48 Sudoeste 2 -- -- 94
2021-02-20 15:00:00 12 12 Sudoeste 45 Sudoeste 1.6 -- -- 93
2021-02-20 14:00:00 12.7 13 Sudoeste 49 Sudoeste 0.7 -- -- 93
2021-02-20 13:00:00 12.2 18 Sudoeste 46 Oeste 5.7 -- -- 94
2021-02-20 12:00:00 13 11 Sur 43 Sur 4.9 -- -- 92
2021-02-20 11:00:00 12.3 5 Sur 42 Sur 3.3 -- -- 92
2021-02-20 10:00:00 12.8 11 Sur 55 Sur 2.7 -- -- 90
2021-02-20 09:00:00 12.2 12 Sur 45 Sur 4.1 -- -- 91
2021-02-20 08:00:00 12 9 Sur 33 Sudoeste 5.4 -- -- 87
2021-02-20 07:00:00 13.8 8 Sur 50 Sur 1.2 -- -- 70
2021-02-20 06:00:00 14.5 10 Sur 48 Sur 0 -- -- 67
2021-02-20 05:00:00 14.4 12 Sur 47 Sur 0 -- -- 67
2021-02-20 04:00:00 13.8 10 Sur 37 Sur 0.3 -- -- 75
2021-02-20 03:00:00 12.6 8 Sur 39 Sur 1.1 -- -- 86
2021-02-20 02:00:00 13.1 10 Sur 38 Sur 1.4 -- -- 79
2021-02-20 01:00:00 14.1 9 Sur 46 Sur 0 -- -- 69
2021-02-20 00:00:00 13.8 11 Sur 44 Sur 0.2 -- -- 76
2021-02-19 23:00:00 13 6 Sur 45 Sur 1.1 -- -- 87
2021-02-19 22:00:00 13.5 9 Sur 46 Sur 0 -- -- 79
2021-02-19 21:00:00 13.4 11 Sur 46 Sur 0 -- -- 79
2021-02-19 20:00:00 13.6 7 Sur 34 Sur 0 -- -- 77
2021-02-19 19:00:00 13.5 10 Sur 38 Sur 0 -- -- 78
2021-02-19 18:00:00 13.3 8 Sur 33 Sur 0 -- -- 82
2021-02-19 17:00:00 13 7 Sur 38 Sur 0.5 -- -- 88
2021-02-19 16:00:00 13.1 11 Sur 35 Sur 0.1 -- -- 87
2021-02-19 15:00:00 13.4 10 Sur 48 Sudeste 0.3 -- -- 86
2021-02-19 14:00:00 12.9 8 Sur 35 Sur 0.1 -- -- 87
2021-02-19 13:00:00 13.2 10 Sur 32 Sur 0.2 -- -- 86
2021-02-19 12:00:00 12.5 9 Sur 41 Sudeste 1.1 -- -- 89
2021-02-19 11:00:00 13.7 9 Sur 33 Sudoeste 0 -- -- 74
2021-02-19 10:00:00 12.5 8 Sur 27 Sudoeste 0 -- -- 81
2021-02-19 09:00:00 12 7 Sur 28 Sur 0 -- -- 82
2021-02-19 08:00:00 11.6 8 Sur 28 Sudoeste 0 -- -- 79
2021-02-19 07:00:00 11 7 Sudoeste 25 Oeste 0 -- -- 78
2021-02-19 06:00:00 10.8 9 Sur 26 Sur 0 -- -- 76
2021-02-19 05:00:00 10.6 6 Sur 28 Sur 0 -- -- 80
2021-02-19 04:00:00 10.5 4 Sur 20 Sudeste 0 -- -- 79
2021-02-19 03:00:00 10.2 5 Sur 32 Sudoeste 0 -- -- 79
2021-02-19 02:00:00 10 6 Sur 26 Sudoeste 0 -- -- 80
2021-02-19 01:00:00 10 8 Sur 28 Sudeste 0 -- -- 79
2021-02-19 00:00:00 9.5 5 Sur 25 Sur 0 -- -- 79
2021-02-18 23:00:00 9.5 4 Sur 23 Sur 0 -- -- 81
2021-02-18 22:00:00 9.8 5 Sur 16 Sur 0 -- -- 79
2021-02-18 21:00:00 9.8 4 Sur 19 Sur 0 -- -- 75
2021-02-18 20:00:00 10.2 5 Sur 19 Sur 0 -- -- 75
2021-02-18 19:00:00 10.9 6 Sudoeste 27 Sudoeste 0 -- -- 68
2021-02-18 18:00:00 11.8 8 Sudoeste 23 Sudoeste 0 -- -- 64
2021-02-18 17:00:00 11.2 11 Sudoeste 30 Sudoeste 0 -- -- 63
2021-02-18 16:00:00 12.8 10 Sudoeste 35 Sudoeste 0 -- -- 53
2021-02-18 15:00:00 12.8 10 Sudoeste 34 Sudoeste 0 -- -- 55
2021-02-18 14:00:00 13.2 8 Sudoeste 25 Sudoeste 0 -- -- 68
2021-02-18 13:00:00 11 4 Sudoeste 18 Sudoeste 0.7 -- -- 78
2021-02-18 12:00:00 12.4 6 Sudoeste 19 Sudoeste 0 -- -- 71
2021-02-18 11:00:00 11.6 7 Sudoeste 17 Sudoeste 0 -- -- 81
2021-02-18 10:00:00 9.4 3 Oeste 10 Sudoeste 0 -- -- 95
2021-02-18 09:00:00 8.9 0 Calma 10 Sudoeste 0.2 -- -- 95
2021-02-18 08:00:00 9.1 5 Oeste 17 Oeste 1.9 -- -- 95
2021-02-18 07:00:00 9.6 4 Sudoeste 15 Sudoeste 1.7 -- -- 95
2021-02-18 06:00:00 9.5 4 Sudoeste 17 Sudoeste 2 -- -- 94
2021-02-18 05:00:00 10.1 5 Oeste 42 Oeste 5.2 -- -- 90
2021-02-18 04:00:00 12.3 10 Sudoeste 54 Sudoeste 0.8 -- -- 86
2021-02-18 03:00:00 12.4 14 Sudoeste 55 Sudoeste 0 -- -- 84
2021-02-18 02:00:00 12.1 11 Sudoeste 44 Sudoeste 0 -- -- 85
2021-02-18 01:00:00 12.1 15 Sudoeste 43 Sudoeste 0 -- -- 84
2021-02-18 00:00:00 12.2 13 Sudoeste 43 Sudoeste 0 -- -- 86
2021-02-17 23:00:00 12 10 Sudoeste 40 Oeste 0 -- -- 81
2021-02-17 22:00:00 12.3 11 Sudoeste 50 Sudoeste 0.5 -- -- 90
2021-02-17 21:00:00 12.3 8 Sur 32 Sudoeste 1.1 -- -- 95
2021-02-17 20:00:00 11.4 5 Sudoeste 48 Sudoeste 1.3 -- -- 90
2021-02-17 19:00:00 12.1 9 Sur 48 Sudoeste 3.3 -- -- 92
2021-02-17 18:00:00 11.8 6 Sur 28 Sur 2.1 -- -- 94
2021-02-17 17:00:00 11.7 4 Sur 23 Sudoeste 2.7 -- -- 91
2021-02-17 16:00:00 12.3 5 Sur 38 Sudoeste 0.3 -- -- 83
2021-02-17 15:00:00 13.3 10 Sudoeste 36 Sudoeste 0 -- -- 71
2021-02-17 14:00:00 13.6 11 Sudoeste 41 Sudoeste 0 -- -- 70
2021-02-17 13:00:00 13.3 8 Sudoeste 28 Sudoeste 0 -- -- 66
2021-02-17 12:00:00 12 7 Sur 32 Sur 0 -- -- 75
2021-02-17 11:00:00 11.8 7 Sur 25 Sudoeste 0 -- -- 79
2021-02-17 10:00:00 10.3 5 Sur 17 Sur 0 -- -- 87
2021-02-17 09:00:00 8.9 3 Sur 12 Sur 0 -- -- 90
2021-02-17 08:00:00 8.7 2 Sur 16 Sur 0 -- -- 91
2021-02-17 07:00:00 7.9 0 Calma 12 Sur 0 -- -- 90
2021-02-17 06:00:00 8.7 2 Sudeste 10 Sur 0 -- -- 88
2021-02-17 05:00:00 9.1 0 Calma 10 Sudoeste 0 -- -- 88
2021-02-17 04:00:00 9.4 2 Sur 10 Sur 0 -- -- 88
2021-02-17 03:00:00 9.5 2 Sur 13 Sur 0 -- -- 88
2021-02-17 02:00:00 9.6 4 Sur 13 Sur 0 -- -- 88
2021-02-17 01:00:00 10.1 4 Sur 13 Sur 0 -- -- 88
2021-02-17 00:00:00 10.5 3 Sur 12 Sur 0 -- -- 88
2021-02-16 23:00:00 10.4 3 Sur 13 Sudeste 0 -- -- 88
2021-02-16 22:00:00 10.8 3 Sur 16 Sur 0 -- -- 87
2021-02-16 21:00:00 10.9 3 Sur 13 Sur 0 -- -- 85
2021-02-16 20:00:00 11.2 5 Sur 22 Sudoeste 0 -- -- 82
2021-02-16 19:00:00 11.9 4 Sudoeste 24 Sudoeste 0 -- -- 70
2021-02-16 18:00:00 12.8 7 Sudoeste 32 Sudoeste 0 -- -- 63
2021-02-16 17:00:00 13.9 8 Sudoeste 30 Sudoeste 0 -- -- 60
2021-02-16 16:00:00 14.2 8 Sudoeste 30 Oeste 0 -- -- 60
2021-02-16 15:00:00 13.8 10 Sudoeste 29 Sudoeste 0 -- -- 67
2021-02-16 14:00:00 13.7 10 Sudoeste 30 Sudoeste 0 -- -- 73
2021-02-16 13:00:00 13.8 4 Sudoeste 28 Sudoeste 0 -- -- 68
2021-02-16 12:00:00 13.4 8 Sudoeste 26 Sudoeste 0 -- -- 73
2021-02-16 11:00:00 12 9 Sudoeste 26 Sudoeste 0 -- -- 87
2021-02-16 10:00:00 10.7 6 Sudoeste 21 Sudoeste 0.4 -- -- 95
2021-02-16 09:00:00 10.2 5 Sudoeste 15 Sudoeste 1 -- -- 94
2021-02-16 08:00:00 10.3 3 Sudoeste 14 Sudoeste 3.3 -- -- 93
2021-02-16 07:00:00 11.1 9 Oeste 41 Sudoeste 7.9 -- -- 93
2021-02-16 06:00:00 12.7 11 Sudoeste 37 Sudoeste 1.8 -- -- 84
2021-02-16 05:00:00 13.4 9 Sudoeste 32 Sudoeste 0 -- -- 80
2021-02-16 04:00:00 13.7 10 Sur 40 Sudoeste 0 -- -- 79
2021-02-16 03:00:00 13.7 9 Sur 44 Sudoeste 0 -- -- 80
2021-02-16 02:00:00 13.8 12 Sur 39 Sur 0 -- -- 80
2021-02-16 01:00:00 14.1 9 Sur 33 Sudoeste 0 -- -- 80
2021-02-16 00:00:00 13.9 8 Sur 35 Sudoeste 0 -- -- 80
2021-02-15 23:00:00 13.6 6 Sur 33 Sudoeste 0 -- -- 81
2021-02-15 22:00:00 13 8 Sur 30 Sudoeste 0 -- -- 81
2021-02-15 21:00:00 13.2 5 Sudoeste 23 Sudoeste 0 -- -- 74
2021-02-15 20:00:00 14.5 8 Sudoeste 24 Sudoeste 0 -- -- 57
2021-02-15 19:00:00 15.6 9 Sudoeste 26 Sudoeste 0 -- -- 47
2021-02-15 18:00:00 17.4 9 Sudoeste 32 Sudoeste 0 -- -- 39
2021-02-15 17:00:00 18.6 9 Sudoeste 33 Sudoeste 0 -- -- 39
2021-02-15 16:00:00 18.7 10 Sudoeste 28 Oeste 0 -- -- 41
2021-02-15 15:00:00 20.9 6 Sudoeste 32 Sur 0 -- -- 33
2021-02-15 14:00:00 20.1 8 Sur 34 Sudoeste 0 -- -- 36
2021-02-15 13:00:00 19.1 6 Sur 29 Sur 0 -- -- 44
2021-02-15 12:00:00 17.6 7 Sudeste 21 Sur 0 -- -- 52
2021-02-15 11:00:00 15.6 5 Sur 15 Sur 0 -- -- 56
2021-02-15 10:00:00 13.1 4 Sur 13 Sudeste 0 -- -- 64
2021-02-15 09:00:00 12 0 Calma 6 Sudoeste 0 -- -- 72
2021-02-15 08:00:00 11.9 0 Calma 6 Sur 0 -- -- 69
2021-02-15 07:00:00 11.9 0 Calma 13 Sur 0 -- -- 66
2021-02-15 06:00:00 11.9 2 Sur 12 Sur 0 -- -- 65
2021-02-15 05:00:00 11.1 0 Calma 5 Sur 0 -- -- 65
2021-02-15 04:00:00 11.9 0 Calma 9 Sudoeste 0 -- -- 62
2021-02-15 03:00:00 12 2 Sur 11 Sur 0 -- -- 61
2021-02-15 02:00:00 11.9 2 Sur 12 Sur 0 -- -- 58
2021-02-15 01:00:00 12.2 2 Sudoeste 11 Sur 0 -- -- 51
2021-02-15 00:00:00 13 3 Sur 15 Sur 0 -- -- 48
2021-02-14 23:00:00 13.3 3 Sur 18 Sur 0 -- -- 47
2021-02-14 22:00:00 12.8 6 Sur 19 Sudeste 0 -- -- 52
2021-02-14 21:00:00 13.1 5 Sudoeste 22 Sudoeste 0 -- -- 60
2021-02-14 20:00:00 13 8 Sudoeste 25 Sudoeste 0 -- -- 69
2021-02-14 19:00:00 13.5 9 Sudoeste 21 Sudoeste 0 -- -- 67
2021-02-14 18:00:00 14.5 7 Sudoeste 24 Sudoeste 0 -- -- 61
2021-02-14 17:00:00 15.9 9 Sudoeste 32 Sudoeste 0 -- -- 52
2021-02-14 16:00:00 16.2 10 Sudoeste 33 Sudoeste 0 -- -- 49
2021-02-14 15:00:00 16 11 Sudoeste 33 Sudoeste 0 -- -- 49
2021-02-14 14:00:00 15.7 10 Sudoeste 32 Sudoeste 0 -- -- 51
2021-02-14 13:00:00 15.8 10 Sudoeste 25 Sudoeste 0 -- -- 57
2021-02-14 12:00:00 14.1 3 Sur 10 Sudoeste 0 -- -- 63
2021-02-14 11:00:00 13.1 2 Sur 12 Sur 0 -- -- 67
2021-02-14 10:00:00 13 6 Sudoeste 16 Sur 0 -- -- 68
2021-02-14 09:00:00 12.3 5 Sur 18 Sur 0 -- -- 76
2021-02-14 08:00:00 11.6 5 Sur 13 Sur 0 -- -- 84
2021-02-14 07:00:00 11.4 4 Sur 19 Sur 0 -- -- 86
2021-02-14 06:00:00 11.2 4 Sur 14 Sudoeste 0 -- -- 90
2021-02-14 05:00:00 11 0 Calma -- -- 0 -- -- 91
2021-02-14 04:00:00 11.6 0 Calma 13 Sudoeste 0 -- -- 90
2021-02-14 03:00:00 12 2 Sur 23 Sudoeste 0 -- -- 90
2021-02-14 02:00:00 12 8 Sudoeste 24 Sudoeste 0 -- -- 90
2021-02-14 01:00:00 11.8 4 Sudoeste 13 Sudoeste 0 -- -- 85
2021-02-14 00:00:00 11.9 4 Sur 17 Sur 0 -- -- 86
2021-02-13 23:00:00 11.8 0 Calma 14 Sur 0.1 -- -- 90
2021-02-13 22:00:00 11.7 3 Sur 11 Sur 0 -- -- 96
2021-02-13 21:00:00 12.2 2 Sur 11 Sur 0.1 -- -- 96
2021-02-13 20:00:00 12.3 5 Sur 15 Sur 0.5 -- -- 96
2021-02-13 19:00:00 12.6 3 Sur 14 Sur 0.7 -- -- 95
2021-02-13 18:00:00 12.7 5 Sudoeste 17 Sudoeste 0.7 -- -- 95
2021-02-13 17:00:00 12.8 5 Sur 24 Sudoeste 0 -- -- 95
2021-02-13 16:00:00 12.7 5 Sudoeste 23 Sur 0.2 -- -- 95
2021-02-13 15:00:00 12.9 7 Sudoeste 27 Sudoeste 0 -- -- 95
2021-02-13 14:00:00 12.5 5 Sudoeste 27 Sudoeste 0.3 -- -- 95
2021-02-13 13:00:00 12.2 8 Sudoeste 28 Sudoeste 0.2 -- -- 95
2021-02-13 08:00:00 10.4 3 Sur 17 Sudoeste 0.6 -- -- 93
2021-02-13 07:00:00 10.5 0 Calma 14 Sur 1.3 -- -- 90
2021-02-13 06:00:00 10.4 4 Sudeste 15 Sur 0.1 -- -- 86
2021-02-13 05:00:00 10.7 5 Sur 19 Sur 0 -- -- 83
2021-02-13 04:00:00 11 4 Sur 19 Sur 0 -- -- 83
2021-02-13 03:00:00 11 5 Sur 26 Sudoeste 0 -- -- 84
2021-02-13 02:00:00 11.1 5 Sur 28 Sur 0 -- -- 84
2021-02-13 01:00:00 11.1 6 Sur 20 Sudoeste 0 -- -- 83
2021-02-13 00:00:00 11.1 5 Sur 17 Sudoeste 0 -- -- 85
2021-02-12 23:00:00 11.2 5 Sur 18 Sur 0 -- -- 85
2021-02-12 22:00:00 11.2 3 Sur 17 Sur 0 -- -- 86
2021-02-12 21:00:00 11.3 6 Sur 15 Sur 0 -- -- 84
2021-02-12 20:00:00 11.5 4 Sur 24 Sudoeste 0 -- -- 83
2021-02-12 19:00:00 11.9 5 Sur 20 Sudoeste 0 -- -- 79
2021-02-12 18:00:00 12.2 7 Sudoeste 23 Sudoeste 0 -- -- 76
2021-02-12 17:00:00 12.9 6 Sudoeste 31 Oeste 0 -- -- 67
2021-02-12 16:00:00 14.3 10 Sudoeste 25 Oeste 0 -- -- 58
2021-02-12 15:00:00 14.4 8 Sudoeste 22 Sudoeste 0 -- -- 61
2021-02-12 14:00:00 13.6 7 Sudoeste 20 Sudoeste 0 -- -- 68
2021-02-12 13:00:00 13.4 3 Oeste 13 Sudoeste 0 -- -- 79
2021-02-12 12:00:00 12.8 4 Sudoeste 14 Sudoeste 0 -- -- 89
2021-02-12 11:00:00 11.1 3 Sudoeste 10 Sudoeste 0 -- -- 96
2021-02-12 10:00:00 10.5 0 Calma 7 Oeste 0 -- -- 96
2021-02-12 09:00:00 10.1 0 Calma 5 Sudoeste 0 -- -- 96
2021-02-12 08:00:00 10.2 0 Calma 8 Sudoeste 0.1 -- -- 96
2021-02-12 07:00:00 10.5 0 Calma 5 Sudoeste 0.1 -- -- 95
2021-02-12 06:00:00 10.4 0 Calma 9 Sudoeste 0.7 -- -- 95
2021-02-12 05:00:00 10.5 0 Calma 10 Oeste 0.3 -- -- 95
2021-02-12 04:00:00 10.6 5 Sudoeste 27 Oeste 0.3 -- -- 95
2021-02-12 03:00:00 11.2 5 Sudoeste 17 Sudoeste 0.1 -- -- 96
2021-02-12 02:00:00 11.4 5 Sudoeste 23 Sudoeste 3 -- -- 96
2021-02-12 01:00:00 11.9 5 Sudoeste 17 Sudoeste 0.5 -- -- 96
2021-02-12 00:00:00 12 4 Sudoeste 18 Sudoeste 0.8 -- -- 95
2021-02-11 23:00:00 12.3 6 Sudoeste 18 Sudoeste 4.4 -- -- 95
2021-02-11 22:00:00 12.3 5 Sudoeste 21 Sudoeste 1.1 -- -- 95
2021-02-11 21:00:00 12.5 4 Sur 16 Sur 1.8 -- -- 95
2021-02-11 20:00:00 12.6 0 Calma 16 Sudoeste 1.4 -- -- 95
2021-02-11 19:00:00 12.5 3 Sudoeste 12 Sudoeste 1.3 -- -- 95
2021-02-11 18:00:00 12.5 6 Sudoeste 17 Sudoeste 2.7 -- -- 95
2021-02-11 17:00:00 12.9 4 Sudoeste 31 Sudoeste 9.6 -- -- 95
2021-02-11 16:00:00 13.8 8 Sudoeste 36 Sudoeste 0.3 -- -- 95
2021-02-11 15:00:00 13.7 6 Sur 26 Sur 3.1 -- -- 95
2021-02-11 14:00:00 13.5 4 Sudoeste 24 Sudoeste 7.2 -- -- 95
2021-02-11 13:00:00 13.5 7 Sudoeste 31 Sudoeste 6 -- -- 95
2021-02-11 12:00:00 13.4 8 Sudoeste 35 Sudoeste 4.9 -- -- 95
2021-02-11 11:00:00 13.4 5 Sudoeste 22 Sudoeste 3 -- -- 96
2021-02-11 10:00:00 13.4 4 Sur 30 Oeste 1.2 -- -- 96
2021-02-11 09:00:00 13.1 6 Sur 31 Sudoeste 4.7 -- -- 96
2021-02-11 08:00:00 12.9 9 Sudoeste 34 Sudoeste 2.5 -- -- 97
2021-02-11 07:00:00 12.9 8 Sudoeste 27 Sudoeste 0.3 -- -- 97
2021-02-11 06:00:00 13 7 Sudoeste 33 Sudoeste 0.1 -- -- 97
2021-02-11 05:00:00 12.9 9 Sudoeste 37 Sudoeste 0.5 -- -- 97
2021-02-11 04:00:00 12.9 6 Sudoeste 31 Sudoeste 0.4 -- -- 97
2021-02-11 03:00:00 11.6 3 Sur 9 Sudoeste 0.7 -- -- 97
2021-02-11 02:00:00 10.7 0 Calma 9 Sudoeste 0.7 -- -- 96
2021-02-11 01:00:00 9.7 0 Calma 3 Sudeste 0.5 -- -- 95
2021-02-11 00:00:00 9.3 0 Calma -- -- 0.5 -- -- 94
2021-02-10 23:00:00 9.1 0 Calma 7 Sudeste 0.4 -- -- 91
2021-02-10 22:00:00 9.4 0 Calma 17 Sudoeste 0.2 -- -- 87
2021-02-10 21:00:00 9.7 2 Sur 11 Oeste 0 -- -- 88
2021-02-10 20:00:00 9.9 0 Calma 11 Sudoeste 0.6 -- -- 84
2021-02-10 19:00:00 10.4 6 Sudoeste 15 Sudoeste 0 -- -- 74
2021-02-10 18:00:00 11 5 Sudoeste 17 Sudoeste 0 -- -- 65
2021-02-10 17:00:00 11.5 5 Sudoeste 19 Sudoeste 0 -- -- 60
2021-02-10 16:00:00 12.9 5 Sudoeste 24 Oeste 0 -- -- 54
2021-02-10 15:00:00 12.4 8 Sudoeste 25 Sudoeste 0 -- -- 53
2021-02-10 14:00:00 13 6 Sudoeste 18 Sudoeste 0 -- -- 53
2021-02-10 13:00:00 12 6 Sudoeste 19 Sudoeste 0 -- -- 60
2021-02-10 12:00:00 10.7 4 Sudoeste -- -- -- -- -- 79
2021-02-10 11:00:00 8.9 0 Calma 5 Sudeste 0 -- -- 97
2021-02-10 10:00:00 5.9 0 Calma -- -- 0 -- -- 97
2021-02-10 09:00:00 5.3 0 Calma -- -- 0 -- -- 97
2021-02-10 08:00:00 5.1 0 Calma -- -- 0 -- -- 97
2021-02-10 07:00:00 4.9 0 Calma -- -- 0 -- -- 96
2021-02-10 06:00:00 5 0 Calma -- -- 0 -- -- 96
2021-02-10 05:00:00 4.7 0 Calma -- -- 0 -- -- 94
2021-02-10 04:00:00 5.1 0 Calma -- -- 0 -- -- 94
2021-02-10 03:00:00 6.1 0 Calma -- -- 0 -- -- 92
2021-02-10 02:00:00 6.6 0 Calma 11 Sudoeste 0.3 -- -- 89
2021-02-10 01:00:00 7.4 5 Noroeste 16 Noroeste 2.8 -- -- 88
2021-02-10 00:00:00 7.9 6 Sudoeste 21 Sudoeste 0 -- -- 90
2021-02-09 23:00:00 7.9 3 Sudoeste 21 Sudoeste 1.3 -- -- 91
2021-02-09 22:00:00 8.1 3 Oeste 17 Sudoeste 1.2 -- -- 91
2021-02-09 21:00:00 7.9 3 Sudoeste 17 Sudoeste 0 -- -- 90
2021-02-09 20:00:00 7.4 4 Sudoeste 18 Sudoeste 0.1 -- -- 93
2021-02-09 19:00:00 7.3 5 Sudoeste 13 Sudoeste 0.2 -- -- 93
2021-02-09 18:00:00 7.1 0 Calma 8 Sur 1.2 -- -- 89
2021-02-09 17:00:00 7.3 2 Sur 33 Sudoeste 4.1 -- -- 84
2021-02-09 16:00:00 9.3 8 Sudoeste 26 Oeste 3.7 -- -- 73
2021-02-09 15:00:00 10.5 7 Sudoeste 25 Sudoeste 0 -- -- 64
2021-02-09 14:00:00 10.4 10 Oeste 27 Sudoeste 0 -- -- 60
2021-02-09 13:00:00 10.3 13 Sudoeste 35 Sudoeste 0 -- -- 59
2021-02-09 12:00:00 10.4 10 Sudoeste 31 Sudoeste 0 -- -- 64
2021-02-09 11:00:00 9.2 12 Sudoeste 36 Sur 0 -- -- 68
2021-02-09 10:00:00 8.9 9 Sudoeste 32 Sudoeste 0.1 -- -- 81
2021-02-09 09:00:00 8.6 7 Sudoeste 32 Sudoeste 3.7 -- -- 90
2021-02-09 08:00:00 8.2 6 Sudoeste 37 Sudoeste 1.4 -- -- 85
2021-02-09 07:00:00 10.3 16 Sudoeste 44 Oeste 8.4 -- -- 91
2021-02-09 06:00:00 10.5 9 Sudoeste 42 Oeste 6.4 -- -- 93
2021-02-09 05:00:00 10.6 13 Sudoeste 42 Sudoeste 3.3 -- -- 93
2021-02-09 04:00:00 10.1 9 Sur 32 Sudoeste 1 -- -- 93
2021-02-09 03:00:00 9.8 9 Sur 29 Sudoeste 0.7 -- -- 94
2021-02-09 02:00:00 9 6 Sur 24 Sudoeste 2 -- -- 93
2021-02-09 01:00:00 8.5 6 Sur 28 Sudoeste 0.7 -- -- 92
2021-02-09 00:00:00 8.3 7 Sur 30 Sudoeste 1.2 -- -- 91
2021-02-08 23:00:00 8.8 9 Sudoeste 35 Sudoeste 0.6 -- -- 90
2021-02-08 22:00:00 9.8 7 Sudoeste 30 Sudoeste 0.9 -- -- 89
2021-02-08 21:00:00 9.6 8 Sudoeste 22 Sudoeste 0 -- -- 90
2021-02-08 20:00:00 9.4 3 Sudoeste 16 Sur 0 -- -- 90
2021-02-08 19:00:00 9.7 3 Sur 15 Sudoeste 0 -- -- 90
2021-02-08 18:00:00 10.2 5 Sudoeste 15 Sudoeste 0 -- -- 90
2021-02-08 17:00:00 10.3 5 Sudoeste 16 Oeste 0.9 -- -- 90
2021-02-08 16:00:00 11 0 Calma 17 Sudoeste 0.1 -- -- 87
2021-02-08 15:00:00 11 7 Sudoeste 19 Sudoeste 0 -- -- 86
2021-02-08 14:00:00 11 5 Oeste 15 Oeste 0.3 -- -- 82
2021-02-08 13:00:00 10.8 4 Oeste 16 Oeste 0.9 -- -- 87
2021-02-08 12:00:00 11.1 6 Sudoeste 14 Sudoeste 0 -- -- 86
2021-02-08 11:00:00 8.4 0 Calma 17 Oeste 0.1 -- -- 93
2021-02-08 10:00:00 8.3 2 Sudoeste 18 Sudoeste 1.7 -- -- 94
2021-02-08 09:00:00 8.3 0 Calma 11 Sudoeste 0.7 -- -- 94
2021-02-08 08:00:00 8 2 Sudoeste 10 Sudoeste 0.7 -- -- 94
2021-02-08 07:00:00 7.9 0 Calma 12 Oeste 0.9 -- -- 94
2021-02-08 06:00:00 8.2 0 Calma -- -- 0.1 -- -- 94
2021-02-08 05:00:00 8.5 0 Calma 12 Sudoeste 1.5 -- -- 94
2021-02-08 04:00:00 8.5 3 Sudoeste 13 Sudoeste 0.2 -- -- 94
2021-02-08 03:00:00 8.7 0 Calma 6 Oeste 0.9 -- -- 94
2021-02-08 02:00:00 8.9 0 Calma 14 Sudoeste 1.3 -- -- 94
2021-02-08 01:00:00 9.4 0 Calma 9 Sudoeste 0.4 -- -- 94
2021-02-08 00:00:00 9.3 0 Calma 16 Sudoeste 0 -- -- 95
2021-02-07 23:00:00 9.8 0 Calma 20 Nordeste 1.3 -- -- 97
2021-02-07 22:00:00 10.5 2 Sudoeste 26 Sudoeste 8.7 -- -- 97
2021-02-07 21:00:00 10.1 4 Sur 30 Oeste 4.3 -- -- 96
2021-02-07 20:00:00 9.8 3 Sur 16 Sur 2.5 -- -- 96
2021-02-07 19:00:00 9.1 0 Calma 16 Sudoeste 5.5 -- -- 95
2021-02-07 18:00:00 8.7 0 Calma 17 Sur 0.5 -- -- 94
2021-02-07 17:00:00 8.5 2 Sur 20 Sudeste 0.2 -- -- 93
2021-02-07 16:00:00 7.9 2 Sur 21 Sudoeste 0.2 -- -- 93
2021-02-07 15:00:00 7.7 7 Sudoeste 24 Sudoeste 0 -- -- 93
2021-02-07 14:00:00 7 6 Sudoeste 21 Sudoeste 0 -- -- 94
2021-02-07 13:00:00 6.4 2 Sudoeste 15 Sudeste 0 -- -- 94
2021-02-07 12:00:00 5.5 0 Calma 14 Sur 0.1 -- -- 94
2021-02-07 11:00:00 4.6 0 Calma 5 Sudeste 0.5 -- -- 94
2021-02-07 10:00:00 3.5 0 Calma 10 Sudeste 0.3 -- -- 93
2021-02-07 09:00:00 3.3 3 Sudeste 9 Sudeste 0.1 -- -- 93
2021-02-07 08:00:00 3.1 2 Sudeste 9 Sudeste 0.1 -- -- 95
2021-02-07 07:00:00 2.9 0 Calma 8 Sudeste 0 -- -- 96
2021-02-07 06:00:00 2.3 0 Calma 10 Sudeste 0 -- -- 95
2021-02-07 05:00:00 2 0 Calma -- -- 0 -- -- 94
2021-02-07 04:00:00 2.3 0 Calma -- -- 0 -- -- 93
2021-02-07 03:00:00 2.7 0 Calma -- -- 0 -- -- 93
2021-02-07 02:00:00 3.3 0 Calma -- -- 0 -- -- 92
2021-02-07 01:00:00 3.8 0 Calma -- -- 0 -- -- 91
2021-02-07 00:00:00 4.1 0 Calma -- -- 0 -- -- 88
2021-02-06 23:00:00 5.1 0 Calma 5 Nordeste 0 -- -- 86
2021-02-06 22:00:00 5.4 0 Calma 8 Nordeste 0 -- -- 83
2021-02-06 21:00:00 5.9 0 Calma 8 Nordeste 0 -- -- 75
2021-02-06 20:00:00 7.3 2 Nordeste 15 Norte 0 -- -- 67
2021-02-06 19:00:00 7.6 0 Calma 20 Norte 0 -- -- 65
2021-02-06 18:00:00 9.2 5 Norte 29 Noroeste 0 -- -- 57
2021-02-06 17:00:00 9.5 9 Norte 29 Norte 0 -- -- 54
2021-02-06 16:00:00 10.4 9 Nordeste 28 Norte 0 -- -- 53
2021-02-06 15:00:00 9.4 13 Norte 29 Nordeste 0 -- -- 56
2021-02-06 14:00:00 9.5 10 Norte 35 Nordeste 0 -- -- 63
2021-02-06 13:00:00 10.2 14 Nordeste 37 Nordeste 0 -- -- 63
2021-02-06 12:00:00 9.2 13 Nordeste 33 Norte 0 -- -- 69
2021-02-06 11:00:00 8.7 12 Norte 33 Norte 0 -- -- 75
2021-02-06 10:00:00 7.8 12 Nordeste 35 Nordeste 0 -- -- 79
2021-02-06 09:00:00 7.5 9 Norte 30 Nordeste 0 -- -- 80
2021-02-06 08:00:00 8 11 Norte 38 Nordeste 0 -- -- 75
2021-02-06 07:00:00 8.3 13 Nordeste 33 Nordeste 0 -- -- 75
2021-02-06 06:00:00 8.2 13 Nordeste 31 Nordeste 0 -- -- 77
2021-02-06 05:00:00 7.8 10 Norte 26 Nordeste 0 -- -- 88
2021-02-06 04:00:00 7.9 9 Norte 29 Norte 0 -- -- 84
2021-02-06 03:00:00 8.2 9 Norte 31 Nordeste 0 -- -- 83
2021-02-06 02:00:00 8 13 Norte 28 Norte 0.1 -- -- 85
2021-02-06 01:00:00 8.3 13 Nordeste 30 Nordeste 0.5 -- -- 86
2021-02-06 00:00:00 8.5 12 Nordeste 31 Nordeste 0.1 -- -- 83
2021-02-05 23:00:00 8.7 11 Nordeste 32 Norte 0.1 -- -- 85
2021-02-05 22:00:00 9 10 Norte 30 Norte 0 -- -- 82
2021-02-05 21:00:00 9.3 10 Norte 30 Norte 0 -- -- 78
2021-02-05 20:00:00 9.5 11 Nordeste 30 Nordeste 0 -- -- 76
2021-02-05 19:00:00 9.7 10 Norte 31 Norte 0 -- -- 75
2021-02-05 18:00:00 10.1 11 Norte 31 Nordeste 0 -- -- 75
2021-02-05 17:00:00 10.8 9 Nordeste 31 Nordeste 0 -- -- 72
2021-02-05 16:00:00 11 9 Norte 34 Norte 0 -- -- 72
2021-02-05 15:00:00 11.1 13 Nordeste 31 Nordeste 0 -- -- 75
2021-02-05 14:00:00 11.3 13 Nordeste 32 Norte 0 -- -- 73
2021-02-05 13:00:00 10.8 9 Nordeste 25 Nordeste 0 -- -- 77
2021-02-05 12:00:00 10 7 Nordeste 26 Nordeste 0 -- -- 90
2021-02-05 11:00:00 7.9 7 Nordeste 21 Norte 0 -- -- 97
2021-02-05 10:00:00 6.7 4 Nordeste 13 Norte 0 -- -- 97
2021-02-05 09:00:00 6.3 8 Nordeste 20 Norte 0 -- -- 97
2021-02-05 08:00:00 6.2 9 Nordeste 19 Nordeste 0 -- -- 97
2021-02-05 07:00:00 6.8 8 Nordeste 18 Nordeste 0 -- -- 96
2021-02-05 06:00:00 7.1 6 Nordeste 14 Norte 0 -- -- 96
2021-02-05 05:00:00 7.4 5 Nordeste 14 Nordeste 0 -- -- 96
2021-02-05 04:00:00 7.6 4 Nordeste 10 Nordeste 0 -- -- 95
2021-02-05 03:00:00 8 4 Nordeste 12 Norte 0 -- -- 95
2021-02-05 02:00:00 8.1 5 Nordeste 14 Nordeste 0 -- -- 95
2021-02-05 01:00:00 8.2 3 Nordeste 8 Nordeste 0.1 -- -- 94
2021-02-05 00:00:00 8.5 3 Nordeste 10 Norte 0 -- -- 94
2021-02-04 23:00:00 8.6 5 Nordeste 11 Nordeste 0.3 -- -- 94
2021-02-04 22:00:00 8.7 4 Nordeste 11 Nordeste 0 -- -- 93
2021-02-04 21:00:00 8.9 3 Nordeste 13 Nordeste 0.5 -- -- 93
2021-02-04 20:00:00 9.3 0 Calma -- -- 3.1 -- -- 91
2021-02-04 19:00:00 9.7 0 Calma 8 Nordeste 4.8 -- -- 88
2021-02-04 18:00:00 10.4 0 Calma 11 Sudeste 0 -- -- 82
2021-02-04 17:00:00 10.5 0 Calma 12 Sudoeste 4.2 -- -- 78
2021-02-04 16:00:00 12.9 0 Calma 12 Sudeste 0 -- -- 60
2021-02-04 15:00:00 12.9 0 Calma 10 Sur 0 -- -- 60
2021-02-04 14:00:00 12.9 0 Calma 10 Sudeste 0 -- -- 60
2021-02-04 13:00:00 12.5 0 Calma 13 Sudeste 0 -- -- 64
2021-02-04 12:00:00 12.8 0 Calma 10 Sur 0 -- -- 68
2021-02-04 11:00:00 10.9 0 Calma 0 Calma 0 -- -- 85
2021-02-04 10:00:00 7.9 0 Calma -- -- 0 -- -- 92
2021-02-04 09:00:00 8.4 0 Calma -- -- 0.1 -- -- 91
2021-02-04 08:00:00 8.8 0 Calma 6 Sudeste 0 -- -- 92
2021-02-04 07:00:00 9.1 0 Calma 12 Oeste 0 -- -- 92
2021-02-04 06:00:00 9 0 Calma 14 Sur 0 -- -- 93
2021-02-04 05:00:00 9.2 0 Calma 2 Sur 0.2 -- -- 93
2021-02-04 04:00:00 9.1 0 Calma 11 Sudoeste 0 -- -- 92
2021-02-04 03:00:00 9.1 0 Calma 8 Sur 0 -- -- 91
2021-02-04 02:00:00 9.4 0 Calma 14 Sudoeste 2.5 -- -- 90
2021-02-04 01:00:00 9.4 0 Calma 19 Sudoeste 0.3 -- -- 86
2021-02-04 00:00:00 9.7 6 Sudoeste 25 Sur 1.4 -- -- 85
2021-02-03 23:00:00 10.4 3 Sur 21 Sudeste 0 -- -- 80
2021-02-03 22:00:00 10.3 0 Calma 24 Sudoeste 0 -- -- 80
2021-02-03 21:00:00 10.5 0 Calma 24 Sur 0 -- -- 77
2021-02-03 20:00:00 10.5 0 Calma 17 Sur 0 -- -- 77
2021-02-03 19:00:00 10.7 0 Calma 17 Sudoeste 0 -- -- 75
2021-02-03 18:00:00 11.4 0 Calma 24 Sudoeste 0 -- -- 69
2021-02-03 17:00:00 12.3 4 Sur 23 Sudeste 0 -- -- 69
2021-02-03 16:00:00 12.5 4 Sur 26 Sudoeste 0 -- -- 72
2021-02-03 15:00:00 11.6 2 Sur 19 Sudoeste 0.4 -- -- 79
2021-02-03 14:00:00 10 9 Sudoeste 30 Sudoeste 1.2 -- -- 74
2021-02-03 13:00:00 12.1 3 Sudoeste 31 Sudoeste 0.5 -- -- 76
2021-02-03 12:00:00 12.1 8 Sudoeste 34 Sudoeste 0.1 -- -- 71
2021-02-03 11:00:00 12 8 Sudoeste 29 Sudoeste 0.2 -- -- 80
2021-02-03 10:00:00 11 2 Sudoeste 27 Oeste 0 -- -- 87
2021-02-03 09:00:00 10.9 5 Sudoeste 28 Sudoeste 0.2 -- -- 89
2021-02-03 08:00:00 10.8 3 Sudoeste 29 Oeste 0.2 -- -- 89
2021-02-03 07:00:00 10.3 2 Sudoeste 27 Sudoeste 0 -- -- 90
2021-02-03 06:00:00 9.9 0 Calma 18 Sudoeste 0 -- -- 90
2021-02-03 05:00:00 9.9 0 Calma 38 Sudoeste 3.7 -- -- 88
2021-02-03 04:00:00 11.2 4 Sudoeste 36 Sudoeste 1 -- -- 86
2021-02-03 03:00:00 11.4 3 Sudoeste 31 Sudoeste 0 -- -- 78
2021-02-03 02:00:00 11.5 6 Sudoeste 40 Sudoeste 0.3 -- -- 82
2021-02-03 01:00:00 12 10 Sudoeste 43 Sudoeste 3 -- -- 94
2021-02-03 00:00:00 12 8 Sudoeste 34 Sudoeste 4.7 -- -- 94
2021-02-02 23:00:00 11.9 8 Sudoeste 36 Sudoeste 1.7 -- -- 93
2021-02-02 22:00:00 12 8 Sudoeste 44 Sudoeste 0.4 -- -- 90
2021-02-02 21:00:00 12.4 8 Sudoeste 40 Sudoeste 0.2 -- -- 90
2021-02-02 20:00:00 12.8 8 Sur 40 Sudoeste 4.2 -- -- 93
2021-02-02 19:00:00 12.7 3 Sur 25 Sur 3.8 -- -- 93
2021-02-02 18:00:00 12.5 4 Sudoeste 33 Sudoeste 6.7 -- -- 93
2021-02-02 17:00:00 12.6 6 Sur 33 Sudeste 4.4 -- -- 93
2021-02-02 16:00:00 12.6 7 Sur 38 Sudoeste 4.2 -- -- 93
2021-02-02 15:00:00 12.9 8 Sudoeste 36 Sudeste 1.5 -- -- 93
2021-02-02 14:00:00 13.2 8 Sudoeste 39 Sudoeste 0.7 -- -- 93
2021-02-02 13:00:00 13.2 6 Sudoeste 41 Sudoeste 1.9 -- -- 93
2021-02-02 12:00:00 12.9 4 Sur 29 Sudoeste 2.6 -- -- 94
2021-02-02 11:00:00 12.9 7 Sudoeste 36 Sudoeste 3.6 -- -- 93
2021-02-02 10:00:00 12.8 12 Sudoeste 36 Oeste 1.9 -- -- 94
2021-02-02 09:00:00 12.7 8 Sur 42 Sudoeste 0.8 -- -- 94
2021-02-02 08:00:00 12.6 8 Sudoeste 33 Sudoeste 1.3 -- -- 94
2021-02-02 07:00:00 12.7 8 Sudoeste 36 Sudoeste 3.7 -- -- 94
2021-02-02 06:00:00 12.7 9 Sudoeste 45 Sudoeste 1.1 -- -- 93
2021-02-02 05:00:00 12.6 11 Sudoeste 39 Sudoeste 0.5 -- -- 93
2021-02-02 04:00:00 12.6 12 Sudoeste 36 Oeste 1.1 -- -- 93
2021-02-02 03:00:00 12.3 9 Sudoeste 34 Sudoeste 1.2 -- -- 93
2021-02-02 02:00:00 12.3 3 Sudoeste 29 Sudoeste 0.1 -- -- 93
2021-02-02 01:00:00 12.1 2 Sudoeste 29 Sudoeste 0.3 -- -- 94
2021-02-02 00:00:00 12.4 6 Sudoeste 27 Sudoeste 1.2 -- -- 95
2021-02-01 23:00:00 12.4 2 Sudoeste 26 Sudoeste 0.7 -- -- 95
2021-02-01 22:00:00 12.3 6 Sudoeste 32 Oeste 0.1 -- -- 94
2021-02-01 21:00:00 12.3 2 Sudoeste 24 Sudoeste 0 -- -- 95
2021-02-01 20:00:00 12.6 2 Sudoeste 22 Sudoeste 0.1 -- -- 96
2021-02-01 19:00:00 12.3 4 Sudoeste 32 Sudoeste 0.4 -- -- 95
2021-02-01 18:00:00 12.3 5 Sudoeste 24 Sudoeste 0.6 -- -- 95
2021-02-01 17:00:00 12 4 Sudoeste 21 Sudoeste 0.7 -- -- 94
2021-02-01 16:00:00 12 0 Calma 24 Sudoeste 0.3 -- -- 92
2021-02-01 15:00:00 12.3 6 Sudoeste 24 Sudoeste 0 -- -- 87
2021-02-01 14:00:00 12.1 8 Sudoeste 27 Sudoeste 0.1 -- -- 93
2021-02-01 13:00:00 12.4 5 Sudoeste 28 Sudoeste 0.2 -- -- 94
2021-02-01 12:00:00 12.3 6 Sudoeste 21 Sudoeste 0.1 -- -- 94
2021-02-01 11:00:00 12.1 6 Sudoeste 21 Sudoeste 0 -- -- 93
2021-02-01 10:00:00 12.1 7 Sudoeste 21 Sudoeste 0.1 -- -- 94
2021-02-01 09:00:00 11.8 9 Sudoeste 22 Sudoeste 0.1 -- -- 94
2021-02-01 08:00:00 11.8 6 Sudoeste 19 Sudoeste 0.2 -- -- 93
2021-02-01 07:00:00 11.9 7 Sudoeste 21 Sudoeste 0 -- -- 89
2021-02-01 06:00:00 12 8 Sudoeste 22 Sudoeste 0 -- -- 87
2021-02-01 05:00:00 12 8 Sudoeste 21 Sudoeste 0 -- -- 88
2021-02-01 04:00:00 12.3 8 Sudoeste 26 Sudoeste 0 -- -- 85
2021-02-01 03:00:00 12.3 9 Sudoeste 26 Sudoeste 0 -- -- 85
2021-02-01 02:00:00 12.3 9 Sudoeste 25 Sudoeste 0 -- -- 84
2021-02-01 01:00:00 12.5 7 Sudoeste 21 Sudoeste 0.1 -- -- 82
2021-02-01 00:00:00 12.5 7 Sudoeste 21 Sudoeste 0 -- -- 81
2021-01-31 23:00:00 12.5 8 Sudoeste 24 Sudoeste 0 -- -- 82
2021-01-31 22:00:00 12.5 8 Oeste 29 Sudoeste 0 -- -- 82
2021-01-31 21:00:00 12.4 7 Sudoeste 22 Sudoeste 0 -- -- 84
2021-01-31 20:00:00 12.3 9 Sudoeste 35 Sudoeste 0.2 -- -- 87
2021-01-31 19:00:00 12.6 9 Sudoeste 31 Oeste 0.2 -- -- 89
2021-01-31 18:00:00 12.9 10 Oeste 30 Sudoeste 0 -- -- 87
2021-01-31 17:00:00 13.1 10 Sudoeste 27 Sur 0 -- -- 87
2021-01-31 16:00:00 13.2 10 Sudoeste 32 Oeste 0 -- -- 88
2021-01-31 15:00:00 13.2 6 Sudoeste 33 Sudoeste 0 -- -- 90
2021-01-31 14:00:00 13.8 5 Sudoeste 23 Sudoeste 0 -- -- 93
2021-01-31 13:00:00 13.4 5 Sur 24 Sudoeste 0 -- -- 91
2021-01-31 12:00:00 13.5 5 Sudoeste 23 Oeste 0.1 -- -- 94
2021-01-31 11:00:00 13.2 7 Sudoeste 21 Sudoeste 0.1 -- -- 96
2021-01-31 10:00:00 12.8 4 Sudoeste 13 Sudoeste 0.4 -- -- 96
2021-01-31 09:00:00 12.2 3 Sudoeste 17 Sudoeste 0.9 -- -- 96
2021-01-31 08:00:00 11.7 6 Sudoeste 23 Sudoeste 1.1 -- -- 96
2021-01-31 07:00:00 11.1 5 Sudoeste 21 Sudoeste 1.7 -- -- 96
2021-01-31 06:00:00 10.9 7 Sudoeste 23 Sudoeste 1.7 -- -- 96
2021-01-31 05:00:00 10.9 5 Sudoeste 17 Sudoeste 0.8 -- -- 95
2021-01-31 04:00:00 10.7 6 Sudoeste 22 Sudoeste 1.7 -- -- 94
2021-01-31 03:00:00 10.3 4 Sudoeste 13 Sudoeste 1.4 -- -- 93
2021-01-31 02:00:00 10.2 0 Calma 9 Oeste 0.3 -- -- 87
2021-01-31 01:00:00 10.3 3 Sudoeste 12 Oeste 0.2 -- -- 80
2021-01-31 00:00:00 10.5 5 Oeste 15 Oeste 0 -- -- 77
2021-01-30 23:00:00 10.3 5 Sudoeste 19 Oeste 0 -- -- 77
2021-01-30 22:00:00 10.5 5 Oeste 24 Sudoeste 0 -- -- 74
2021-01-30 21:00:00 10.1 5 Oeste 24 Sudoeste 0 -- -- 79
2021-01-30 20:00:00 10 6 Oeste 18 Sudoeste 0 -- -- 81
2021-01-30 19:00:00 9.6 6 Oeste 25 Oeste 0.3 -- -- 84
2021-01-30 18:00:00 10.4 7 Oeste 27 Sudoeste 0.1 -- -- 73
2021-01-30 17:00:00 11 12 Sudoeste 35 Sudoeste 0 -- -- 68
2021-01-30 16:00:00 11.1 9 Oeste 22 Sudoeste 0.3 -- -- 72
2021-01-30 15:00:00 11 7 Oeste 37 Oeste 0.1 -- -- 68
2021-01-30 14:00:00 11.5 8 Oeste 27 Oeste 0.1 -- -- 60
2021-01-30 13:00:00 11.6 8 Oeste 36 Sudoeste 0 -- -- 68
2021-01-30 12:00:00 10.3 9 Sudoeste 29 Sudoeste 0.3 -- -- 83
2021-01-30 11:00:00 10.4 12 Oeste 27 Sudoeste 0.1 -- -- 79
2021-01-30 10:00:00 8.9 7 Oeste 26 Sudoeste 0.8 -- -- 86
2021-01-30 09:00:00 9.1 10 Oeste 41 Oeste 0.7 -- -- 75
2021-01-30 08:00:00 9.4 8 Sudoeste 29 Sudoeste 0.2 -- -- 78
2021-01-30 07:00:00 10.1 8 Sudoeste 38 Sudoeste 1.1 -- -- 82
2021-01-30 06:00:00 11.3 14 Sudoeste 31 Sudoeste 0 -- -- 70
2021-01-30 05:00:00 11.1 11 Oeste 40 Sudoeste 0 -- -- 69
2021-01-30 04:00:00 12.1 13 Sudoeste 37 Sudoeste 0 -- -- 75
2021-01-30 03:00:00 11.6 10 Sudoeste 28 Oeste 1.3 -- -- 82
2021-01-30 02:00:00 12.3 10 Sudoeste 32 Sudoeste 0.1 -- -- 78
2021-01-30 01:00:00 12.3 9 Sudoeste 28 Sudoeste 0 -- -- 84
2021-01-30 00:00:00 11.8 8 Sudoeste 29 Sudoeste 0.1 -- -- 87